Time;durP1;ratioP1;P1;durP2;ratioP2;P2;SDS_P1;SDS_P2;PMS_P1;PMS_P2;Temp;Humidity;BMP_temperature;BMP_pressure;BME280_temperature;BME280_humidity;BME280_pressure;Samples;Min_cycle;Max_cycle;Signal;HPM_P1;HPM_P2
2022/05/02 00:01:26;;;;;;;4.25;1.80;;;16.70;37.80;;;14.68;41.09;101787.03;12245039;19;20023;-81
2022/05/02 00:05:28;;;;;;;2.40;1.60;;;16.70;37.90;;;14.58;40.99;101775.31;12244911;19;20077;-81
2022/05/02 00:09:29;;;;;;;1.60;1.42;;;16.70;38.10;;;14.50;41.14;101769.63;12242284;19;20015;-81
2022/05/02 00:13:31;;;;;;;2.20;1.42;;;16.60;38.00;;;14.50;41.37;101769.63;12243269;19;20070;-81
2022/05/02 00:21:53;;;;;;;1.52;1.40;;;16.50;38.30;;;14.25;41.44;101757.81;12242778;19;20093;-81
2022/05/02 00:25:55;;;;;;;1.33;1.05;;;16.40;38.20;;;14.24;41.58;101747.41;12241140;19;20011;-81
2022/05/02 00:29:57;;;;;;;1.52;1.38;;;16.50;38.30;;;14.24;41.67;101742.16;12243446;19;20015;-81
2022/05/02 00:33:59;;;;;;;1.33;1.23;;;16.30;38.40;;;14.12;41.68;101728.75;12240495;19;20625;-81
2022/05/02 00:38:00;;;;;;;2.75;1.25;;;16.20;38.40;;;14.09;41.48;101728.06;12242528;19;20257;-81
2022/05/02 00:42:02;;;;;;;1.20;1.15;;;16.20;38.20;;;14.19;41.74;101745.03;12242327;19;20016;-81
2022/05/02 00:46:18;;;;;;;2.08;1.30;;;16.30;38.40;;;14.05;42.00;101716.88;12242986;19;20010;-81
2022/05/02 00:50:32;;;;;;;2.55;1.33;;;16.30;38.50;;;13.72;42.11;101675.75;12240116;19;20037;-81
2022/05/02 00:54:35;;;;;;;1.55;1.42;;;16.10;38.40;;;13.91;41.95;101717.63;12236357;19;20514;-81
2022/05/02 00:58:37;;;;;;;1.48;1.38;;;16.10;38.30;;;13.85;41.98;101714.44;12241061;19;20008;-81
2022/05/02 01:02:39;;;;;;;1.42;1.27;;;16.10;38.40;;;13.90;41.94;101720.31;12240718;19;20034;-81
2022/05/02 01:11:02;;;;;;;1.70;1.60;;;15.90;38.60;;;13.81;41.97;101712.94;12239892;19;20006;-80
2022/05/02 01:15:04;;;;;;;2.10;1.45;;;16.10;38.70;;;13.96;42.23;101733.13;12237708;19;20097;-81
2022/05/02 01:19:06;;;;;;;1.50;1.40;;;16.10;38.80;;;13.93;42.23;101728.91;12241804;19;20017;-81
2022/05/02 01:23:07;;;;;;;1.95;1.33;;;15.90;38.80;;;13.77;42.29;101714.88;12241348;19;20023;-80
2022/05/02 01:27:11;;;;;;;2.40;1.65;;;16.10;38.90;;;13.90;42.23;101733.44;12239054;19;20011;-80
2022/05/02 01:31:15;;;;;;;1.25;1.15;;;16.00;38.80;;;13.89;42.25;101726.50;12235913;19;20584;-81
2022/05/02 01:35:16;;;;;;;2.53;1.75;;;16.00;38.90;;;13.87;42.40;101728.34;12237373;19;20018;-81
2022/05/02 01:39:18;;;;;;;2.70;1.73;;;15.80;38.80;;;13.77;42.40;101714.88;12240395;19;20476;-81
2022/05/02 01:43:19;;;;;;;2.50;1.85;;;15.80;38.90;;;13.80;42.42;101721.72;12236452;19;20480;-81
2022/05/02 01:47:21;;;;;;;3.42;1.85;;;15.90;39.00;;;13.58;42.52;101682.63;12247387;19;20077;-80
2022/05/02 01:51:23;;;;;;;2.03;1.75;;;15.90;39.10;;;13.63;42.56;101699.84;12250306;19;20014;-80
2022/05/02 01:55:24;;;;;;;1.90;1.73;;;15.80;39.10;;;13.48;42.70;101687.53;12244511;19;20396;-81
2022/05/02 01:59:26;;;;;;;1.65;1.50;;;15.70;39.00;;;13.28;42.64;101667.56;12249605;19;20085;-80
2022/05/02 02:03:27;;;;;;;2.13;1.70;;;15.70;39.00;;;13.56;42.70;101716.84;12249621;19;20039;-81
2022/05/02 02:07:29;;;;;;;1.80;1.50;;;15.70;39.10;;;13.56;42.89;101716.84;12251410;19;20511;-80
2022/05/02 02:11:30;;;;;;;2.03;1.90;;;15.40;39.10;;;13.37;42.75;101677.59;12249503;19;20379;-81
2022/05/02 02:15:32;;;;;;;2.92;1.73;;;15.50;39.10;;;13.52;42.89;101709.19;12249285;19;20018;-81
2022/05/02 02:19:34;;;;;;;2.03;1.70;;;15.70;39.20;;;13.38;42.84;101692.41;12251212;19;20002;-81
2022/05/02 02:23:37;;;;;;;2.42;1.48;;;15.60;39.10;;;13.21;43.01;101674.88;12246902;19;20018;-81
2022/05/02 02:27:39;;;;;;;1.83;1.70;;;15.40;39.00;;;13.37;43.15;101697.72;12249932;19;20015;-81
2022/05/02 02:31:40;;;;;;;1.60;1.23;;;15.60;39.20;;;13.34;43.01;101701.38;12245098;19;20070;-80
2022/05/02 02:35:42;;;;;;;3.47;1.55;;;15.50;39.00;;;12.76;42.97;101618.56;12248513;19;20082;-80
2022/05/02 02:39:45;;;;;;;1.60;1.50;;;15.40;39.00;;;13.14;42.98;101697.06;12250872;19;20340;-79
2022/05/02 02:43:46;;;;;;;1.83;1.65;;;15.40;39.10;;;12.99;43.22;101687.38;12245453;19;20018;-80
2022/05/02 02:47:48;;;;;;;2.20;1.95;;;15.30;39.10;;;12.89;43.30;101680.88;12248563;19;20006;-80
2022/05/02 02:51:49;;;;;;;2.00;1.70;;;15.30;39.20;;;13.07;43.24;101709.66;12247495;19;20070;-80
2022/05/02 02:55:51;;;;;;;2.88;2.63;;;15.10;39.20;;;12.86;43.20;101681.03;12248874;19;20017;-80
2022/05/02 02:59:53;;;;;;;2.20;2.00;;;15.20;39.40;;;12.90;43.38;101682.56;12249239;19;20010;-80
2022/05/02 03:03:55;;;;;;;1.85;1.75;;;15.20;39.30;;;12.80;43.28;101677.78;12246039;19;20014;-80
2022/05/02 03:07:58;;;;;;;1.67;1.55;;;14.90;39.30;;;12.84;43.44;101679.31;12246674;19;20013;-80
2022/05/02 03:11:59;;;;;;;1.88;1.67;;;15.00;39.30;;;12.92;43.34;101693.84;12244465;19;20492;-80
2022/05/02 03:16:02;;;;;;;2.75;1.63;;;14.90;39.20;;;12.76;43.34;101668.38;12245533;19;20587;-80
2022/05/02 03:20:05;;;;;;;3.30;1.77;;;15.00;39.30;;;12.89;43.36;101680.88;12246849;19;20010;-80
2022/05/02 03:24:07;;;;;;;1.90;1.40;;;15.00;39.40;;;12.66;43.49;101647.94;12243892;19;20369;-80
2022/05/02 03:28:09;;;;;;;3.28;2.15;;;15.00;39.40;;;12.68;43.41;101641.69;12244599;19;20121;-80
2022/05/02 03:32:11;;;;;;;2.70;1.45;;;15.10;39.50;;;12.73;43.31;101660.66;12242092;19;20036;-80
2022/05/02 03:36:12;;;;;;;1.90;1.55;;;14.90;39.30;;;12.71;43.35;101659.03;12244127;19;20496;-80
2022/05/02 03:40:14;;;;;;;1.83;1.73;;;15.00;39.30;;;12.75;43.52;101687.66;12245165;19;20022;-80
2022/05/02 03:44:16;;;;;;;1.90;1.70;;;14.80;39.30;;;12.39;43.43;101625.66;12239451;19;20113;-80
2022/05/02 03:48:18;;;;;;;2.55;1.88;;;14.90;39.40;;;12.51;43.53;101649.53;12242684;19;20092;-80
2022/05/02 03:52:20;;;;;;;2.83;2.20;;;14.90;39.80;;;12.62;43.58;101670.81;12242154;19;20011;-80
2022/05/02 03:56:21;;;;;;;1.83;1.73;;;14.80;39.40;;;12.54;43.63;101668.56;12242390;19;20018;-80
2022/05/02 04:00:23;;;;;;;2.10;1.75;;;14.80;39.50;;;12.43;43.50;101655.16;12243480;19;20124;-80
2022/05/02 04:04:24;;;;;;;1.73;1.60;;;14.80;39.50;;;12.45;43.50;101662.91;12239724;19;20007;-80
2022/05/02 04:08:26;;;;;;;2.65;2.00;;;14.70;39.50;;;12.53;43.68;101680.00;12239638;19;20010;-80
2022/05/02 04:12:38;;;;;;;1.80;1.70;;;14.60;39.40;;;12.43;44.01;101662.16;12240452;19;20011;-80
2022/05/02 04:16:40;;;;;;;8.50;1.77;;;14.70;39.60;;;12.14;43.62;101617.25;12242894;19;20022;-80
2022/05/02 04:20:41;;;;;;;3.15;1.80;;;14.70;39.50;;;12.39;43.74;101667.56;12243984;19;20056;-80
2022/05/02 04:24:43;;;;;;;1.52;1.42;;;14.50;39.60;;;12.54;43.95;101683.44;12240768;19;20033;-80
2022/05/02 04:28:44;;;;;;;2.53;1.85;;;14.70;39.70;;;12.49;43.78;101677.56;12242615;19;20019;-80
2022/05/02 04:32:46;;;;;;;1.80;1.58;;;14.70;39.60;;;12.16;43.83;101637.19;12240796;19;20337;-80
2022/05/02 04:36:47;;;;;;;3.80;2.45;;;14.60;39.70;;;12.13;43.82;101636.50;12242580;19;20364;-80
2022/05/02 04:40:49;;;;;;;1.63;1.52;;;14.70;39.70;;;12.00;43.98;101612.66;12242375;19;20018;-80
2022/05/02 04:44:51;;;;;;;2.30;2.10;;;14.50;39.60;;;12.16;43.92;101659.94;12227871;19;20006;-80
2022/05/02 04:48:53;;;;;;;2.60;1.50;;;14.30;39.50;;;12.08;44.16;101665.50;12238899;19;20017;-79
2022/05/02 04:52:55;;;;;;;2.40;2.20;;;14.20;39.50;;;12.12;44.00;101684.53;12235260;19;20019;-79
2022/05/02 04:56:56;;;;;;;2.17;1.73;;;14.30;39.60;;;12.21;44.03;101699.84;12241642;19;20014;-79
2022/05/02 05:00:58;;;;;;;3.10;2.10;;;14.50;39.80;;;12.24;44.18;101701.47;12241323;19;20030;-80
2022/05/02 05:05:00;;;;;;;1.60;1.50;;;14.40;39.80;;;12.22;44.02;101698.91;12238060;19;20011;-80
2022/05/02 05:09:02;;;;;;;2.22;2.03;;;14.40;39.80;;;12.17;44.04;101677.31;12241309;19;20014;-80
2022/05/02 05:13:11;;;;;;;2.42;1.65;;;14.40;39.80;;;12.28;44.17;101695.16;12239645;19;20015;-81
2022/05/02 05:17:58;;;;;;;2.63;1.75;;;14.40;39.90;;;12.32;44.03;101708.03;12237097;19;20014;-79
2022/05/02 05:22:49;;;;;;;3.83;1.75;;;14.40;39.90;;;12.19;44.21;101691.19;12233851;19;20031;-81
2022/05/02 05:27:17;;;;;;;1.98;1.75;;;14.30;40.00;;;12.38;44.17;101722.63;12236106;19;20006;-80
2022/05/02 05:31:42;;;;;;;4.00;1.83;;;14.40;40.10;;;12.42;44.36;101716.31;12233993;19;20003;-79
2022/05/02 05:36:49;;;;;;;2.10;1.90;;;14.50;40.00;;;12.43;44.03;101706.69;12239197;19;20025;-80
2022/05/02 05:41:07;;;;;;;2.40;2.20;;;14.50;40.10;;;12.45;44.15;101702.22;12238897;19;20036;-80
2022/05/02 05:45:40;;;;;;;3.17;1.90;;;14.50;39.80;;;12.59;44.26;101713.75;12236589;19;20006;-80
2022/05/02 05:50:05;;;;;;;3.45;2.33;;;14.60;40.10;;;12.60;44.25;101698.88;12232077;19;20494;-80
2022/05/02 05:54:58;;;;;;;2.53;1.63;;;14.60;39.90;;;12.74;44.24;101704.28;12227883;19;20427;-80
2022/05/02 05:59:27;;;;;;;1.67;1.58;;;14.70;39.90;;;12.36;44.35;101620.53;12237621;19;20022;-80
2022/05/02 06:03:37;;;;;;;1.73;1.50;;;14.80;40.10;;;12.78;44.18;101665.69;12233358;19;20019;-80
2022/05/02 06:07:40;;;;;;;1.60;1.50;;;14.90;40.00;;;12.63;44.16;101633.22;12234642;19;20015;-81
2022/05/02 06:11:46;;;;;;;2.15;2.00;;;15.00;39.80;;;13.10;44.12;101690.31;12231316;19;20028;-83
2022/05/02 06:20:13;;;;;;;2.45;1.92;;;15.20;39.80;;;13.31;43.88;101674.41;12234540;19;20019;-82
2022/05/02 06:24:15;;;;;;;2.43;1.73;;;15.40;39.70;;;13.51;43.90;101690.00;12230820;19;20480;-80
2022/05/02 06:28:23;;;;;;;2.30;1.90;;;15.50;39.60;;;13.69;43.85;101696.03;12236017;19;20510;-80
2022/05/02 06:32:25;;;;;;;1.48;1.38;;;15.60;39.50;;;13.88;43.69;101701.16;12236771;19;20014;-80
2022/05/02 06:36:51;;;;;;;2.17;1.92;;;15.60;39.40;;;14.05;43.84;101706.38;12248729;19;20011;-82
2022/05/02 06:41:50;;;;;;;2.80;2.00;;;15.80;39.40;;;14.07;43.62;101672.13;12248621;19;20027;-81
2022/05/02 06:46:25;;;;;;;1.63;1.35;;;16.10;39.30;;;14.31;43.50;101689.19;12248881;19;20011;-80
2022/05/02 06:50:32;;;;;;;3.28;1.70;;;16.20;39.10;;;14.34;43.34;101672.41;12247432;19;20010;-81
2022/05/02 06:55:10;;;;;;;2.63;1.95;;;16.20;38.70;;;14.41;43.24;101665.00;12242066;19;20010;-81
2022/05/02 06:59:38;;;;;;;1.60;1.45;;;16.50;38.60;;;14.65;43.13;101689.09;12246493;19;20014;-80
2022/05/02 07:04:26;;;;;;;1.55;1.40;;;16.60;38.50;;;14.57;43.08;101656.19;12242880;19;20011;-81
2022/05/02 07:08:28;;;;;;;;;;;16.60;38.30;;;14.88;42.99;101679.88;12244815;19;20329;-81
2022/05/02 07:12:34;;;;;;;1.85;1.30;;;16.80;38.40;;;15.05;42.76;101683.22;12242388;19;19955;-81
2022/05/02 07:16:49;;;;;;;4.78;1.50;;;17.00;38.30;;;15.06;42.76;101660.38;12244834;19;20021;-81
2022/05/02 07:21:21;;;;;;;2.17;1.63;;;17.10;38.20;;;15.45;42.70;101701.09;12249138;19;20376;-81
2022/05/02 07:25:24;;;;;;;1.85;1.67;;;17.20;38.20;;;15.52;42.68;101688.38;12246363;19;20018;-82
2022/05/02 07:29:29;;;;;;;2.90;1.38;;;17.40;38.20;;;15.65;42.54;101666.47;12246893;19;20017;-82
2022/05/02 07:33:37;;;;;;;1.70;1.30;;;17.50;38.20;;;15.83;42.33;101650.53;12240817;19;20085;-81
2022/05/02 07:37:41;;;;;;;1.67;1.35;;;17.70;38.10;;;16.29;42.34;101687.97;12244908;19;20417;-81
2022/05/02 07:41:44;;;;;;;2.67;1.75;;;17.90;38.10;;;16.36;41.94;101665.56;12243391;19;20014;-86
2022/05/02 07:45:47;;;;;;;3.10;2.05;;;18.00;37.50;;;16.66;41.92;101685.59;12241599;19;20039;-82
2022/05/02 07:49:50;;;;;;;2.00;1.48;;;18.20;37.70;;;16.83;41.92;101686.31;12245014;19;20010;-81
2022/05/02 07:53:52;;;;;;;4.95;1.75;;;18.60;37.60;;;16.88;41.78;101656.03;12242712;19;20517;-81
2022/05/02 07:57:56;;;;;;;2.05;1.58;;;18.70;37.40;;;17.18;41.85;101678.69;12246050;19;20022;-81
2022/05/02 08:01:58;;;;;;;1.52;1.33;;;18.90;37.60;;;17.50;41.52;101686.16;12242060;19;20026;-81
2022/05/02 08:06:20;;;;;;;2.05;1.70;;;19.10;37.40;;;17.64;41.26;101679.00;12244874;19;20014;-81
2022/05/02 08:11:01;;;;;;;4.93;1.83;;;19.30;37.10;;;17.56;41.34;101648.78;12241178;19;20010;-80
2022/05/02 08:15:43;;;;;;;1.40;1.30;;;19.50;36.80;;;17.87;41.25;101674.75;12240884;19;20018;-81
2022/05/02 08:20:39;;;;;;;1.90;1.80;;;19.60;37.00;;;18.07;41.35;101665.41;12242273;19;20014;-81
2022/05/02 08:30:06;;;;;;;2.97;1.60;;;19.90;36.80;;;18.46;40.77;101657.34;12241939;19;20015;-81
2022/05/02 08:34:32;;;;;;;3.40;2.40;;;20.10;36.90;;;18.72;40.50;101666.00;12232598;19;20020;-81
2022/05/02 08:39:04;;;;;;;4.53;1.88;;;20.30;36.30;;;18.66;40.48;101645.25;12241971;19;20069;-81
2022/05/02 08:43:51;;;;;;;2.30;2.10;;;20.50;36.40;;;18.89;40.59;101662.94;12241519;19;20018;-81
2022/05/02 08:48:27;;;;;;;7.57;1.85;;;20.60;36.20;;;19.05;40.18;101664.44;12241079;19;20366;-81
2022/05/02 08:52:58;;;;;;;3.85;1.60;;;20.80;36.10;;;19.24;40.20;101660.25;12239548;19;20026;-80
2022/05/02 08:57:40;;;;;;;1.98;1.63;;;20.90;36.00;;;19.44;40.07;101657.88;12241566;19;20010;-81
2022/05/02 09:02:22;;;;;;;2.35;1.90;;;21.10;36.10;;;19.58;39.84;101654.16;12241024;19;20010;-81
2022/05/02 09:07:21;;;;;;;3.38;2.00;;;21.30;35.80;;;19.71;39.98;101649.59;12240246;19;20023;-81
2022/05/02 09:11:58;;;;;;;3.38;1.60;;;21.40;35.70;;;19.71;39.88;101638.16;12239173;19;20019;-81
2022/05/02 09:16:20;;;;;;;4.03;2.42;;;21.60;35.50;;;19.82;39.60;101644.31;12239913;19;20007;-81
2022/05/02 09:20:24;;;;;;;5.55;1.80;;;21.70;35.70;;;19.96;39.60;101637.91;12238226;19;20021;-81
2022/05/02 09:25:03;;;;;;;2.47;1.57;;;21.70;35.30;;;20.07;39.11;101629.91;12238112;19;20039;-81
2022/05/02 09:29:26;;;;;;;2.58;1.85;;;21.90;35.20;;;20.11;39.13;101633.16;12237166;19;20417;-81
2022/05/02 09:33:44;;;;;;;2.03;1.70;;;21.90;35.20;;;20.14;39.34;101609.03;12236366;19;20036;-81
2022/05/02 09:38:29;;;;;;;4.93;1.70;;;21.90;35.10;;;20.25;38.66;101616.97;12238074;19;20025;-81
2022/05/02 09:43:11;;;;;;;4.50;2.10;;;22.00;34.90;;;20.37;38.91;101617.75;12236582;19;20010;-81
2022/05/02 09:52:29;;;;;;;5.63;1.92;;;22.20;34.70;;;20.41;38.34;101613.88;12236102;19;20372;-81
2022/05/02 09:56:44;;;;;;;5.88;2.35;;;22.30;34.40;;;20.32;37.94;101599.56;12237294;19;20014;-84
2022/05/02 10:01:20;;;;;;;2.93;1.83;;;22.30;33.80;;;20.29;38.44;101593.69;12239246;19;20042;-81
2022/05/02 10:05:39;;;;;;;2.42;2.22;;;22.30;34.20;;;20.39;38.42;101583.13;12236789;19;20023;-81
2022/05/02 10:10:10;;;;;;;2.22;1.85;;;22.30;34.30;;;20.62;37.83;101592.72;12250092;19;20041;-81
2022/05/02 10:15:03;;;;;;;2.92;1.90;;;22.30;34.30;;;20.75;37.87;101593.34;12246005;19;20431;-81
2022/05/02 10:20:04;;;;;;;3.65;1.90;;;22.50;34.20;;;20.62;37.67;101574.13;12251179;19;20354;-81
2022/05/02 10:24:39;;;;;;;3.25;2.00;;;22.50;34.10;;;20.86;37.62;101583.66;12246209;19;20014;-81
2022/05/02 10:29:20;;;;;;;2.60;2.10;;;22.60;34.10;;;20.96;37.85;101573.94;12248412;19;20508;-81
2022/05/02 10:33:44;;;;;;;2.00;1.90;;;22.70;34.10;;;21.06;37.31;101558.03;12243848;19;20100;-81
2022/05/02 10:37:56;;;;;;;3.13;2.83;;;22.80;34.10;;;20.96;37.15;101540.25;12248583;19;20006;-81
2022/05/02 10:42:03;;;;;;;2.10;1.90;;;22.70;33.50;;;21.03;37.47;101539.69;12247893;19;20013;-81
2022/05/02 10:46:11;;;;;;;4.60;2.08;;;22.90;33.80;;;21.03;37.39;101515.81;12247504;19;20030;-81
2022/05/02 10:50:28;;;;;;;2.22;1.80;;;23.00;33.90;;;21.31;37.41;101551.44;12245739;19;20018;-81
2022/05/02 10:54:49;;;;;;;2.13;1.92;;;23.00;34.10;;;21.26;36.93;101533.25;12245448;19;20016;-81
2022/05/02 10:58:53;;;;;;;3.85;1.90;;;23.10;33.80;;;21.42;37.39;101543.41;12246711;19;20014;-81
2022/05/02 11:03:04;;;;;;;4.25;2.05;;;23.10;33.80;;;21.53;37.40;101535.31;12247699;19;20022;-81
2022/05/02 11:07:40;;;;;;;2.78;1.83;;;23.10;33.90;;;21.64;36.93;101527.22;12248890;19;20011;-81
2022/05/02 11:11:50;;;;;;;2.63;2.20;;;23.40;33.90;;;21.74;36.77;101534.34;12244682;19;20089;-81
2022/05/02 11:16:37;;;;;;;1.90;1.70;;;23.50;33.70;;;21.78;36.93;101510.00;12246987;19;20057;-81
2022/05/02 11:21:01;;;;;;;2.63;2.10;;;23.50;33.40;;;21.79;36.39;101502.88;12247852;19;20018;-81
2022/05/02 11:25:20;;;;;;;2.22;2.00;;;23.60;33.40;;;21.87;36.35;101500.34;12243122;19;20010;-81
2022/05/02 11:29:32;;;;;;;3.13;2.50;;;23.70;33.60;;;21.79;36.17;101485.13;12245538;19;20194;-81
2022/05/02 11:34:42;;;;;;;2.70;2.50;;;23.70;32.70;;;21.70;36.09;101472.66;12241314;19;20015;-81
2022/05/02 11:39:07;;;;;;;2.72;2.38;;;23.70;33.00;;;21.81;36.37;101488.47;12236761;19;20374;-81
2022/05/02 11:43:11;;;;;;;2.70;1.80;;;23.70;33.00;;;21.76;36.33;101460.63;12243592;19;20111;-80
2022/05/02 11:47:57;;;;;;;3.15;2.30;;;23.70;33.20;;;22.08;36.09;101492.25;12245072;19;20012;-80
2022/05/02 11:52:02;;;;;;;4.15;2.72;;;23.70;33.00;;;22.04;35.86;101465.09;12243758;19;20015;-81
2022/05/02 11:56:05;;;;;;;4.68;2.95;;;23.80;32.80;;;22.12;35.68;101467.06;12243796;19;20034;-81
2022/05/02 12:00:14;;;;;;;4.28;2.45;;;23.80;32.80;;;22.01;35.52;101460.06;12245612;19;20113;-80
2022/05/02 12:04:20;;;;;;;4.00;2.72;;;23.90;32.50;;;22.02;35.74;101459.06;12238988;19;20014;-81
2022/05/02 12:08:32;;;;;;;2.90;2.25;;;23.90;32.60;;;21.87;35.40;101415.25;12238205;19;20014;-80
2022/05/02 12:12:36;;;;;;;3.08;2.35;;;23.90;32.70;;;22.12;35.54;101439.63;12236736;19;20510;-80
2022/05/02 12:16:38;;;;;;;2.70;2.22;;;23.90;32.80;;;22.36;35.30;101450.66;12237666;19;20483;-80
2022/05/02 12:20:41;;;;;;;3.80;2.83;;;24.00;32.60;;;22.30;35.40;101440.56;12238199;19;20040;-80
2022/05/02 12:24:48;;;;;;;3.05;2.80;;;24.10;32.40;;;22.41;35.03;101458.19;12237187;19;20020;-80
2022/05/02 12:28:53;;;;;;;5.13;2.63;;;24.20;32.40;;;22.39;35.32;101457.53;12236913;19;20086;-81
2022/05/02 12:33:01;;;;;;;4.05;2.47;;;24.20;32.40;;;22.26;34.84;101433.88;12234758;19;20014;-79
2022/05/02 12:37:09;;;;;;;5.10;2.50;;;24.20;32.20;;;22.03;35.26;101406.72;12237882;19;20038;-80
2022/05/02 12:41:13;;;;;;;3.67;2.35;;;24.20;32.20;;;21.78;35.30;101387.72;12238124;19;20056;-81
2022/05/02 12:45:20;;;;;;;5.60;3.33;;;24.10;32.20;;;22.00;34.74;101426.44;12238537;19;20031;-78
2022/05/02 12:49:32;;;;;;;2.47;2.28;;;24.00;31.90;;;22.02;34.67;101434.31;12239171;19;20073;-78
2022/05/02 13:02:41;;;;;;;3.22;2.45;;;23.80;32.10;;;21.81;34.95;101399.88;12235805;19;20022;-79
2022/05/02 13:06:45;;;;;;;3.20;2.58;;;23.70;32.20;;;21.88;34.79;101406.31;12235899;19;20015;-81
2022/05/02 13:10:52;;;;;;;3.53;3.22;;;23.70;32.10;;;21.98;34.83;101396.53;12234668;19;20011;-80
2022/05/02 13:15:00;;;;;;;3.78;2.53;;;23.70;31.90;;;21.83;34.44;101356.22;12232523;19;20022;-80
2022/05/02 13:19:04;;;;;;;3.47;3.22;;;23.60;31.90;;;21.87;34.58;101347.00;12234777;19;20421;-80
2022/05/02 13:23:13;;;;;;;5.18;2.70;;;23.70;32.00;;;21.90;34.79;101315.75;12235946;19;20086;-80
2022/05/02 13:27:32;;;;;;;3.28;2.92;;;23.80;32.10;;;22.42;34.26;101385.38;12235692;19;20104;-80
2022/05/02 13:32:02;;;;;;;2.55;2.35;;;24.00;32.30;;;22.35;34.29;101365.63;12231841;19;20074;-80
2022/05/02 13:36:07;;;;;;;4.43;2.50;;;24.10;31.80;;;22.35;34.13;101350.50;12235645;19;20031;-79
2022/05/02 13:40:16;;;;;;;3.72;2.80;;;24.10;31.90;;;22.54;34.06;101366.38;12237244;19;20579;-79
2022/05/02 13:44:27;;;;;;;5.43;2.70;;;24.20;32.00;;;22.58;33.99;101363.44;12242846;19;20014;-79
2022/05/02 13:48:58;;;;;;;2.90;2.50;;;24.20;31.70;;;22.53;34.19;101339.91;12246882;19;20364;-80
2022/05/02 13:53:24;;;;;;;3.97;2.95;;;24.30;32.00;;;22.64;33.99;101339.72;12243606;19;20017;-80
2022/05/02 13:57:45;;;;;;;3.63;2.55;;;24.30;31.60;;;22.62;33.93;101324.88;12247476;19;20031;-80
2022/05/02 14:02:01;;;;;;;6.30;2.55;;;24.30;31.60;;;22.76;33.87;101335.00;12244333;19;20085;-80
2022/05/02 14:06:08;;;;;;;2.97;2.63;;;24.40;31.70;;;22.79;34.08;101325.91;12248110;19;20025;-84
2022/05/02 14:10:12;;;;;;;3.08;2.42;;;24.50;31.90;;;22.93;33.64;101333.41;12246589;19;20014;-80
2022/05/02 14:14:14;;;;;;;2.80;2.30;;;24.40;31.70;;;22.95;34.02;101324.25;12241698;19;20014;-79
2022/05/02 14:18:18;;;;;;;2.72;2.50;;;24.50;31.60;;;23.00;33.42;101315.00;12244019;19;20023;-79
2022/05/02 14:22:34;;;;;;;3.83;2.50;;;24.60;31.50;;;23.03;33.71;101315.53;12245523;19;20491;-80
2022/05/02 14:26:36;;;;;;;3.42;2.22;;;24.70;31.50;;;23.09;33.82;101314.09;12244990;19;20409;-79
2022/05/02 14:31:02;;;;;;;1.95;1.83;;;24.70;31.80;;;23.11;33.57;101323.59;12243080;19;20021;-85
2022/05/02 14:35:05;;;;;;;2.40;2.13;;;24.80;31.30;;;22.77;33.46;101275.47;12239583;19;20014;-86
2022/05/02 14:39:12;;;;;;;4.55;2.30;;;24.80;31.30;;;23.07;33.26;101316.91;12245412;19;20087;-89
2022/05/02 14:43:15;;;;;;;2.67;2.35;;;24.80;31.20;;;22.99;33.16;101290.19;12239468;19;20031;-88
2022/05/02 14:47:18;;;;;;;5.70;2.38;;;24.80;31.10;;;23.03;33.20;101290.72;12245352;19;20034;-89
2022/05/02 14:51:29;;;;;;;4.35;2.00;;;24.80;31.20;;;22.68;32.98;101247.94;12243736;19;20026;-90
2022/05/02 14:55:35;;;;;;;2.50;2.30;;;24.80;31.00;;;22.50;33.35;101231.91;12245984;19;20010;-90
2022/05/02 14:59:37;;;;;;;;;;;24.60;31.10;;;23.01;33.68;101314.00;12247049;19;20018;-92
2022/05/02 15:03:48;;;;;;;2.33;1.63;;;24.60;31.70;;;22.79;33.13;101294.81;12243886;19;20240;-89
2022/05/02 15:08:06;;;;;;;4.22;2.15;;;25.10;31.20;;;22.81;33.24;101305.28;12244703;19;20033;-89
2022/05/02 15:12:18;;;;;;;1.95;1.85;;;24.70;31.20;;;22.68;33.31;101282.53;12232070;19;20018;-88
2022/05/02 15:16:24;;;;;;;3.88;2.08;;;24.60;31.10;;;22.69;33.27;101283.38;12242952;19;20011;-90
2022/05/02 15:20:30;;;;;;;2.33;1.70;;;24.50;31.20;;;22.79;33.30;101286.81;12242924;19;20435;-88
2022/05/02 15:24:57;;;;;;;2.35;2.03;;;24.60;31.30;;;22.85;33.14;101278.22;12236883;19;20010;-89
2022/05/02 15:38:21;;;;;;;2.67;2.17;;;24.60;31.20;;;22.77;33.15;101267.47;12244082;19;20010;-89
2022/05/02 15:42:22;;;;;;;2.13;1.92;;;24.70;31.10;;;22.77;33.49;101263.97;12239341;19;20031;-89
2022/05/02 15:47:03;;;;;;;2.10;2.00;;;24.40;31.30;;;22.74;32.92;101249.97;12240202;19;20010;-88
2022/05/02 15:51:14;;;;;;;2.58;2.10;;;24.60;31.20;;;22.79;32.75;101260.19;12241868;19;20102;-88
2022/05/02 15:55:54;;;;;;;4.22;1.95;;;24.50;31.00;;;22.77;32.93;101259.50;12242106;19;20015;-89
2022/05/02 16:00:16;;;;;;;2.95;2.00;;;24.50;31.20;;;22.72;32.91;101262.59;12243054;19;20407;-88
2022/05/02 16:04:26;;;;;;;2.15;1.92;;;24.50;31.20;;;22.57;33.10;101237.47;12237771;19;20460;-89
2022/05/02 16:12:50;;;;;;;2.15;1.95;;;24.40;31.20;;;22.57;33.39;101242.78;12240399;19;20014;-88
2022/05/02 16:16:54;;;;;;;2.08;1.98;;;24.40;31.60;;;22.47;32.92;101236.72;12241246;19;20460;-89
2022/05/02 16:21:00;;;;;;;3.65;2.20;;;24.30;31.10;;;22.48;32.81;101241.03;12243659;19;20095;-86
2022/05/02 16:25:04;;;;;;;2.88;2.10;;;24.30;31.10;;;22.12;33.08;101186.91;12237892;19;20479;-88
2022/05/02 16:29:14;;;;;;;2.70;2.05;;;24.30;31.20;;;22.39;33.00;101231.31;12242406;19;20029;-88
2022/05/02 16:33:21;;;;;;;4.07;2.08;;;24.20;31.20;;;22.27;32.80;101230.66;12240404;19;20014;-88
2022/05/02 16:37:32;;;;;;;2.25;1.92;;;24.20;31.00;;;22.29;32.98;101244.66;12238384;19;20019;-90
2022/05/02 16:41:37;;;;;;;2.05;1.88;;;24.10;31.10;;;22.23;33.16;101242.59;12242133;19;20329;-89
2022/05/02 16:45:39;;;;;;;2.38;1.98;;;23.90;31.20;;;22.15;33.00;101234.47;12241812;19;20588;-88
2022/05/02 16:49:42;;;;;;;3.00;2.13;;;24.00;31.40;;;22.01;33.33;101226.00;12242495;19;20027;-89
2022/05/02 16:53:44;;;;;;;3.80;2.30;;;23.80;31.20;;;22.02;33.47;101238.31;12240409;19;20503;-90
2022/05/02 16:57:46;;;;;;;2.55;2.03;;;23.90;31.60;;;21.83;33.36;101217.13;12242941;19;20154;-90
2022/05/02 17:01:51;;;;;;;6.80;2.00;;;23.70;31.30;;;21.83;33.23;101227.75;12241437;19;20081;-89
2022/05/02 17:05:59;;;;;;;2.25;1.95;;;23.70;31.50;;;21.52;33.10;101180.16;12242808;19;20019;-89
2022/05/02 17:10:00;;;;;;;1.80;1.70;;;23.70;31.30;;;21.62;33.28;101215.50;12243539;19;20029;-90
2022/05/02 17:14:02;;;;;;;3.58;2.50;;;23.60;31.60;;;21.62;33.16;101222.63;12240696;19;20371;-89
2022/05/02 17:18:05;;;;;;;5.22;1.95;;;23.60;31.50;;;21.64;33.36;101240.13;12241670;19;20508;-89
2022/05/02 17:22:08;;;;;;;2.53;1.67;;;23.50;31.70;;;21.36;33.42;101198.47;12241689;19;20456;-88
2022/05/02 17:26:11;;;;;;;2.20;1.92;;;23.40;31.70;;;21.41;33.80;101209.53;12242393;19;20017;-89
2022/05/02 17:30:16;;;;;;;2.00;1.80;;;23.40;31.80;;;21.33;33.42;101209.38;12238728;19;20039;-89
2022/05/02 17:34:20;;;;;;;2.13;2.03;;;23.40;31.80;;;21.36;33.70;101225.03;12235672;19;20749;-89
2022/05/02 17:38:30;;;;;;;3.00;2.13;;;23.10;31.70;;;21.26;33.60;101221.56;12237074;19;20034;-89
2022/05/02 17:42:32;;;;;;;1.75;1.65;;;23.20;31.60;;;20.95;33.78;101176.59;12238695;19;20271;-88
2022/05/02 17:46:36;;;;;;;2.50;2.10;;;23.10;31.70;;;21.18;33.74;101233.75;12238076;19;20027;-88
2022/05/02 17:50:40;;;;;;;1.80;1.70;;;23.00;31.60;;;21.03;33.79;101219.19;12240829;19;20011;-87
2022/05/02 17:54:48;;;;;;;2.38;2.17;;;22.90;31.70;;;20.96;33.67;101226.06;12235450;19;20014;-89
2022/05/02 17:58:59;;;;;;;5.30;1.90;;;23.00;31.90;;;21.04;34.01;101244.81;12237653;19;20018;-87
2022/05/02 18:03:10;;;;;;;1.70;1.60;;;22.90;32.00;;;20.99;33.97;101249.69;12239397;19;20011;-88